Log Cabin, Texas
Current Conditions -  °F | °C
As of 9:35 AM on Saturday 22 Nov 2014 (Local Time) from KF44 Reporting Station
Overcast Overcast  
Wind Chill: 59°   Ceiling: 2200
Heat Index: 59°   Visibility: 10mi
Dew Point: 54°   Wind: 8mph
Humidity: 82%   Direction: 150°SSE
Pressure: 30.09"   Gusts: NA
Location:  32.115°N, 95.9849°W
Report Text: KF44 221535Z AUTO 15007KT 10SM BKN022 OVC028 15/12 A3009 RMK AO2 LTG DSNT SW AND NW
Loading
Personal Weather Stations






























Interactive Weather Map New forecast layout! Learn more

10-Day Weather Forecast

Advertisements
Track Severe Weather on mobile